Saint Charles, Michigan
Current Conditions -  °F | °C
As of 5:12 PM on Monday 20 Oct 2014 (Local Time) from KMBS Reporting Station
Overcast Overcast  
Wind Chill: 58°   Ceiling: 3200
Heat Index: 58°   Visibility: 10mi
Dew Point: 48°   Wind: 8mph
Humidity: 70%   Direction: 330°NNW
Pressure: 29.8"   Gusts: NA
Location:  43.3°N, 84.14°W
Report Text: KMBS 202112Z 33007KT 10SM FEW027 BKN032 OVC050 14/09 A2980 RMK AO2 T01440089
Loading
Personal Weather Stations






























Interactive Weather Map
Tropical Storm Tracking
New forecast layout! Learn more

10-Day Weather Forecast

Advertisements
Track Severe Weather on mobile